sensor_id;sensor_type;location;lat;lon;timestamp;P1;durP1;ratioP1;P2;durP2;ratioP2
14056;SDS011;7103;54.300;10.180;2022-12-07T00:01:35;0.00;;;0.00;;
14056;SDS011;7103;54.300;10.180;2022-12-07T00:04:07;0.00;;;0.00;;
14056;SDS011;7103;54.300;10.180;2022-12-07T00:06:41;0.10;;;0.10;;
14056;SDS011;7103;54.300;10.180;2022-12-07T00:09:10;0.00;;;0.00;;
14056;SDS011;7103;54.300;10.180;2022-12-07T00:11:39;0.00;;;0.00;;
14056;SDS011;7103;54.300;10.180;2022-12-07T00:14:07;0.00;;;0.00;;
14056;SDS011;7103;54.300;10.180;2022-12-07T00:16:37;0.00;;;0.00;;
14056;SDS011;7103;54.300;10.180;2022-12-07T00:19:04;0.00;;;0.00;;
14056;SDS011;7103;54.300;10.180;2022-12-07T00:21:32;0.10;;;0.10;;
14056;SDS011;7103;54.300;10.180;2022-12-07T00:24:01;0.00;;;0.00;;
14056;SDS011;7103;54.300;10.180;2022-12-07T00:26:33;0.00;;;0.00;;
14056;SDS011;7103;54.300;10.180;2022-12-07T00:29:06;0.10;;;0.10;;
14056;SDS011;7103;54.300;10.180;2022-12-07T00:31:39;0.10;;;0.10;;
14056;SDS011;7103;54.300;10.180;2022-12-07T00:34:07;0.10;;;0.10;;
14056;SDS011;7103;54.300;10.180;2022-12-07T00:36:39;0.00;;;0.00;;
14056;SDS011;7103;54.300;10.180;2022-12-07T00:39:06;0.00;;;0.00;;
14056;SDS011;7103;54.300;10.180;2022-12-07T00:41:33;0.10;;;0.10;;
14056;SDS011;7103;54.300;10.180;2022-12-07T00:44:00;0.00;;;0.00;;
14056;SDS011;7103;54.300;10.180;2022-12-07T00:46:26;0.00;;;0.00;;
14056;SDS011;7103;54.300;10.180;2022-12-07T00:48:54;0.10;;;0.10;;
14056;SDS011;7103;54.300;10.180;2022-12-07T00:51:21;0.00;;;0.00;;
14056;SDS011;7103;54.300;10.180;2022-12-07T00:53:49;0.10;;;0.10;;
14056;SDS011;7103;54.300;10.180;2022-12-07T00:56:18;0.00;;;0.00;;
14056;SDS011;7103;54.300;10.180;2022-12-07T00:58:53;0.00;;;0.00;;
14056;SDS011;7103;54.300;10.180;2022-12-07T01:01:22;0.00;;;0.00;;
14056;SDS011;7103;54.300;10.180;2022-12-07T01:03:50;0.10;;;0.10;;
14056;SDS011;7103;54.300;10.180;2022-12-07T01:06:18;0.00;;;0.00;;
14056;SDS011;7103;54.300;10.180;2022-12-07T01:08:46;0.10;;;0.10;;
14056;SDS011;7103;54.300;10.180;2022-12-07T01:11:14;0.00;;;0.00;;
14056;SDS011;7103;54.300;10.180;2022-12-07T01:13:43;0.00;;;0.00;;
14056;SDS011;7103;54.300;10.180;2022-12-07T01:16:11;0.00;;;0.00;;
14056;SDS011;7103;54.300;10.180;2022-12-07T01:18:40;0.00;;;0.00;;
14056;SDS011;7103;54.300;10.180;2022-12-07T01:23:38;0.00;;;0.00;;
14056;SDS011;7103;54.300;10.180;2022-12-07T01:26:08;0.00;;;0.00;;
14056;SDS011;7103;54.300;10.180;2022-12-07T01:28:38;0.00;;;0.00;;
14056;SDS011;7103;54.300;10.180;2022-12-07T01:31:09;0.00;;;0.00;;
14056;SDS011;7103;54.300;10.180;2022-12-07T01:33:38;0.00;;;0.00;;
14056;SDS011;7103;54.300;10.180;2022-12-07T01:36:13;0.00;;;0.00;;
14056;SDS011;7103;54.300;10.180;2022-12-07T01:38:40;0.00;;;0.00;;
14056;SDS011;7103;54.300;10.180;2022-12-07T01:41:08;0.00;;;0.00;;
14056;SDS011;7103;54.300;10.180;2022-12-07T01:43:35;0.00;;;0.00;;
14056;SDS011;7103;54.300;10.180;2022-12-07T01:46:02;0.00;;;0.00;;
14056;SDS011;7103;54.300;10.180;2022-12-07T01:48:39;0.00;;;0.00;;
14056;SDS011;7103;54.300;10.180;2022-12-07T01:51:09;0.00;;;0.00;;
14056;SDS011;7103;54.300;10.180;2022-12-07T01:53:38;0.00;;;0.00;;
14056;SDS011;7103;54.300;10.180;2022-12-07T01:56:10;0.00;;;0.00;;
14056;SDS011;7103;54.300;10.180;2022-12-07T01:58:41;0.00;;;0.00;;
14056;SDS011;7103;54.300;10.180;2022-12-07T02:01:08;0.00;;;0.00;;
14056;SDS011;7103;54.300;10.180;2022-12-07T02:03:42;0.00;;;0.00;;
14056;SDS011;7103;54.300;10.180;2022-12-07T02:06:10;0.00;;;0.00;;
14056;SDS011;7103;54.300;10.180;2022-12-07T02:08:45;0.00;;;0.00;;
14056;SDS011;7103;54.300;10.180;2022-12-07T02:11:13;0.00;;;0.00;;
14056;SDS011;7103;54.300;10.180;2022-12-07T02:13:40;0.00;;;0.00;;
14056;SDS011;7103;54.300;10.180;2022-12-07T02:16:13;0.00;;;0.00;;
14056;SDS011;7103;54.300;10.180;2022-12-07T02:21:59;0.00;;;0.00;;
14056;SDS011;7103;54.300;10.180;2022-12-07T02:30:07;0.00;;;0.00;;
14056;SDS011;7103;54.300;10.180;2022-12-07T02:35:32;0.00;;;0.00;;
14056;SDS011;7103;54.300;10.180;2022-12-07T02:40:50;0.00;;;0.00;;
14056;SDS011;7103;54.300;10.180;2022-12-07T02:43:27;0.00;;;0.00;;
14056;SDS011;7103;54.300;10.180;2022-12-07T02:45:59;0.00;;;0.00;;
14056;SDS011;7103;54.300;10.180;2022-12-07T02:48:31;0.00;;;0.00;;
14056;SDS011;7103;54.300;10.180;2022-12-07T02:50:59;0.00;;;0.00;;
14056;SDS011;7103;54.300;10.180;2022-12-07T02:56:06;0.00;;;0.00;;
14056;SDS011;7103;54.300;10.180;2022-12-07T03:04:11;0.00;;;0.00;;
14056;SDS011;7103;54.300;10.180;2022-12-07T03:06:56;0.00;;;0.00;;
14056;SDS011;7103;54.300;10.180;2022-12-07T03:09:39;0.00;;;0.00;;
14056;SDS011;7103;54.300;10.180;2022-12-07T03:12:19;0.00;;;0.00;;
14056;SDS011;7103;54.300;10.180;2022-12-07T03:15:07;0.00;;;0.00;;
14056;SDS011;7103;54.300;10.180;2022-12-07T03:17:39;0.00;;;0.00;;
14056;SDS011;7103;54.300;10.180;2022-12-07T03:20:09;0.00;;;0.00;;
14056;SDS011;7103;54.300;10.180;2022-12-07T03:22:41;0.00;;;0.00;;
14056;SDS011;7103;54.300;10.180;2022-12-07T03:25:11;0.00;;;0.00;;
14056;SDS011;7103;54.300;10.180;2022-12-07T03:30:27;0.00;;;0.00;;
14056;SDS011;7103;54.300;10.180;2022-12-07T03:33:13;0.00;;;0.00;;
14056;SDS011;7103;54.300;10.180;2022-12-07T03:35:48;0.00;;;0.00;;
14056;SDS011;7103;54.300;10.180;2022-12-07T03:43:21;0.00;;;0.00;;
14056;SDS011;7103;54.300;10.180;2022-12-07T03:46:12;0.00;;;0.00;;
14056;SDS011;7103;54.300;10.180;2022-12-07T03:51:32;0.00;;;0.00;;
14056;SDS011;7103;54.300;10.180;2022-12-07T03:54:07;0.00;;;0.00;;
14056;SDS011;7103;54.300;10.180;2022-12-07T03:56:46;0.00;;;0.00;;
14056;SDS011;7103;54.300;10.180;2022-12-07T03:59:13;0.00;;;0.00;;
14056;SDS011;7103;54.300;10.180;2022-12-07T04:01:43;0.00;;;0.00;;
14056;SDS011;7103;54.300;10.180;2022-12-07T04:04:11;0.00;;;0.00;;
14056;SDS011;7103;54.300;10.180;2022-12-07T04:06:38;0.00;;;0.00;;
14056;SDS011;7103;54.300;10.180;2022-12-07T04:09:04;0.00;;;0.00;;
14056;SDS011;7103;54.300;10.180;2022-12-07T04:11:31;0.00;;;0.00;;
14056;SDS011;7103;54.300;10.180;2022-12-07T04:13:58;0.00;;;0.00;;
14056;SDS011;7103;54.300;10.180;2022-12-07T04:16:44;0.00;;;0.00;;
14056;SDS011;7103;54.300;10.180;2022-12-07T04:19:11;0.00;;;0.00;;
14056;SDS011;7103;54.300;10.180;2022-12-07T04:21:39;0.00;;;0.00;;
14056;SDS011;7103;54.300;10.180;2022-12-07T04:24:06;0.00;;;0.00;;
14056;SDS011;7103;54.300;10.180;2022-12-07T04:26:33;0.00;;;0.00;;
14056;SDS011;7103;54.300;10.180;2022-12-07T04:29:00;0.00;;;0.00;;
14056;SDS011;7103;54.300;10.180;2022-12-07T04:31:32;0.00;;;0.00;;
14056;SDS011;7103;54.300;10.180;2022-12-07T04:34:00;0.00;;;0.00;;
14056;SDS011;7103;54.300;10.180;2022-12-07T04:36:27;0.00;;;0.00;;
14056;SDS011;7103;54.300;10.180;2022-12-07T04:38:54;0.00;;;0.00;;
14056;SDS011;7103;54.300;10.180;2022-12-07T04:41:21;0.00;;;0.00;;
14056;SDS011;7103;54.300;10.180;2022-12-07T04:43:57;0.00;;;0.00;;
14056;SDS011;7103;54.300;10.180;2022-12-07T04:46:25;0.00;;;0.00;;
14056;SDS011;7103;54.300;10.180;2022-12-07T04:48:54;0.00;;;0.00;;
14056;SDS011;7103;54.300;10.180;2022-12-07T04:51:22;0.00;;;0.00;;
14056;SDS011;7103;54.300;10.180;2022-12-07T04:53:51;0.00;;;0.00;;
14056;SDS011;7103;54.300;10.180;2022-12-07T04:56:18;0.00;;;0.00;;
14056;SDS011;7103;54.300;10.180;2022-12-07T04:58:45;0.00;;;0.00;;
14056;SDS011;7103;54.300;10.180;2022-12-07T05:01:14;0.00;;;0.00;;
14056;SDS011;7103;54.300;10.180;2022-12-07T05:03:42;0.00;;;0.00;;
14056;SDS011;7103;54.300;10.180;2022-12-07T05:06:09;0.00;;;0.00;;
14056;SDS011;7103;54.300;10.180;2022-12-07T05:08:39;0.00;;;0.00;;
14056;SDS011;7103;54.300;10.180;2022-12-07T05:11:07;0.00;;;0.00;;
14056;SDS011;7103;54.300;10.180;2022-12-07T05:13:35;0.00;;;0.00;;
14056;SDS011;7103;54.300;10.180;2022-12-07T05:16:02;0.00;;;0.00;;
14056;SDS011;7103;54.300;10.180;2022-12-07T05:18:29;0.00;;;0.00;;
14056;SDS011;7103;54.300;10.180;2022-12-07T05:20:56;0.00;;;0.00;;
14056;SDS011;7103;54.300;10.180;2022-12-07T05:23:23;0.00;;;0.00;;
14056;SDS011;7103;54.300;10.180;2022-12-07T05:25:50;0.00;;;0.00;;
14056;SDS011;7103;54.300;10.180;2022-12-07T05:28:17;0.00;;;0.00;;
14056;SDS011;7103;54.300;10.180;2022-12-07T05:30:43;0.00;;;0.00;;
14056;SDS011;7103;54.300;10.180;2022-12-07T05:33:10;0.00;;;0.00;;
14056;SDS011;7103;54.300;10.180;2022-12-07T05:35:37;0.00;;;0.00;;
14056;SDS011;7103;54.300;10.180;2022-12-07T05:38:05;0.00;;;0.00;;
14056;SDS011;7103;54.300;10.180;2022-12-07T05:40:32;0.00;;;0.00;;
14056;SDS011;7103;54.300;10.180;2022-12-07T05:42:58;0.00;;;0.00;;
14056;SDS011;7103;54.300;10.180;2022-12-07T05:45:30;0.00;;;0.00;;
14056;SDS011;7103;54.300;10.180;2022-12-07T05:47:57;0.00;;;0.00;;
14056;SDS011;7103;54.300;10.180;2022-12-07T05:50:24;0.00;;;0.00;;
14056;SDS011;7103;54.300;10.180;2022-12-07T05:52:51;0.00;;;0.00;;
14056;SDS011;7103;54.300;10.180;2022-12-07T05:55:18;0.00;;;0.00;;
14056;SDS011;7103;54.300;10.180;2022-12-07T05:57:45;0.00;;;0.00;;
14056;SDS011;7103;54.300;10.180;2022-12-07T06:00:32;0.00;;;0.00;;
14056;SDS011;7103;54.300;10.180;2022-12-07T06:02:59;0.00;;;0.00;;
14056;SDS011;7103;54.300;10.180;2022-12-07T06:05:26;0.00;;;0.00;;
14056;SDS011;7103;54.300;10.180;2022-12-07T06:07:53;0.00;;;0.00;;
14056;SDS011;7103;54.300;10.180;2022-12-07T06:10:20;0.00;;;0.00;;
14056;SDS011;7103;54.300;10.180;2022-12-07T06:12:49;0.00;;;0.00;;
14056;SDS011;7103;54.300;10.180;2022-12-07T06:15:16;0.00;;;0.00;;
14056;SDS011;7103;54.300;10.180;2022-12-07T06:17:44;0.00;;;0.00;;
14056;SDS011;7103;54.300;10.180;2022-12-07T06:20:11;0.00;;;0.00;;
14056;SDS011;7103;54.300;10.180;2022-12-07T06:22:38;0.00;;;0.00;;
14056;SDS011;7103;54.300;10.180;2022-12-07T06:25:05;0.00;;;0.00;;
14056;SDS011;7103;54.300;10.180;2022-12-07T06:27:34;0.00;;;0.00;;
14056;SDS011;7103;54.300;10.180;2022-12-07T06:30:01;0.00;;;0.00;;
14056;SDS011;7103;54.300;10.180;2022-12-07T06:32:32;0.00;;;0.00;;
14056;SDS011;7103;54.300;10.180;2022-12-07T06:35:00;0.00;;;0.00;;
14056;SDS011;7103;54.300;10.180;2022-12-07T06:37:27;0.00;;;0.00;;
14056;SDS011;7103;54.300;10.180;2022-12-07T06:39:54;0.00;;;0.00;;
14056;SDS011;7103;54.300;10.180;2022-12-07T06:42:21;0.00;;;0.00;;
14056;SDS011;7103;54.300;10.180;2022-12-07T06:44:48;0.00;;;0.00;;
14056;SDS011;7103;54.300;10.180;2022-12-07T06:47:15;0.00;;;0.00;;
14056;SDS011;7103;54.300;10.180;2022-12-07T06:50:02;0.00;;;0.00;;
14056;SDS011;7103;54.300;10.180;2022-12-07T06:52:30;0.00;;;0.00;;
14056;SDS011;7103;54.300;10.180;2022-12-07T06:54:56;0.00;;;0.00;;
14056;SDS011;7103;54.300;10.180;2022-12-07T06:57:25;0.00;;;0.00;;
14056;SDS011;7103;54.300;10.180;2022-12-07T06:59:52;0.00;;;0.00;;
14056;SDS011;7103;54.300;10.180;2022-12-07T07:02:19;0.00;;;0.00;;
14056;SDS011;7103;54.300;10.180;2022-12-07T07:04:46;0.00;;;0.00;;
14056;SDS011;7103;54.300;10.180;2022-12-07T07:07:12;0.00;;;0.00;;
14056;SDS011;7103;54.300;10.180;2022-12-07T07:09:39;0.00;;;0.00;;
14056;SDS011;7103;54.300;10.180;2022-12-07T07:12:07;0.00;;;0.00;;
14056;SDS011;7103;54.300;10.180;2022-12-07T07:14:34;0.00;;;0.00;;
14056;SDS011;7103;54.300;10.180;2022-12-07T07:17:01;0.00;;;0.00;;
14056;SDS011;7103;54.300;10.180;2022-12-07T07:19:28;0.00;;;0.00;;
14056;SDS011;7103;54.300;10.180;2022-12-07T07:21:55;0.00;;;0.00;;
14056;SDS011;7103;54.300;10.180;2022-12-07T07:24:22;0.00;;;0.00;;
14056;SDS011;7103;54.300;10.180;2022-12-07T07:26:48;0.03;;;0.03;;
14056;SDS011;7103;54.300;10.180;2022-12-07T07:29:15;0.00;;;0.00;;
14056;SDS011;7103;54.300;10.180;2022-12-07T07:31:42;0.00;;;0.00;;
14056;SDS011;7103;54.300;10.180;2022-12-07T07:34:10;0.00;;;0.00;;
14056;SDS011;7103;54.300;10.180;2022-12-07T07:36:37;0.00;;;0.00;;
14056;SDS011;7103;54.300;10.180;2022-12-07T07:39:04;0.00;;;0.00;;
14056;SDS011;7103;54.300;10.180;2022-12-07T07:41:31;0.00;;;0.00;;
14056;SDS011;7103;54.300;10.180;2022-12-07T07:43:58;0.10;;;0.10;;
14056;SDS011;7103;54.300;10.180;2022-12-07T07:46:24;0.10;;;0.10;;
14056;SDS011;7103;54.300;10.180;2022-12-07T07:48:51;0.00;;;0.00;;
14056;SDS011;7103;54.300;10.180;2022-12-07T07:51:18;0.00;;;0.00;;
14056;SDS011;7103;54.300;10.180;2022-12-07T07:53:45;0.00;;;0.00;;
14056;SDS011;7103;54.300;10.180;2022-12-07T07:56:12;0.00;;;0.00;;
14056;SDS011;7103;54.300;10.180;2022-12-07T07:58:39;0.00;;;0.00;;
14056;SDS011;7103;54.300;10.180;2022-12-07T08:01:06;0.00;;;0.00;;
14056;SDS011;7103;54.300;10.180;2022-12-07T08:03:34;0.00;;;0.00;;
14056;SDS011;7103;54.300;10.180;2022-12-07T08:06:02;0.00;;;0.00;;
14056;SDS011;7103;54.300;10.180;2022-12-07T08:08:33;0.00;;;0.00;;
14056;SDS011;7103;54.300;10.180;2022-12-07T08:11:00;0.00;;;0.00;;
14056;SDS011;7103;54.300;10.180;2022-12-07T08:13:27;0.00;;;0.00;;
14056;SDS011;7103;54.300;10.180;2022-12-07T08:15:57;0.10;;;0.10;;
14056;SDS011;7103;54.300;10.180;2022-12-07T08:18:24;0.00;;;0.00;;
14056;SDS011;7103;54.300;10.180;2022-12-07T08:20:51;0.10;;;0.10;;
14056;SDS011;7103;54.300;10.180;2022-12-07T08:23:18;0.10;;;0.10;;
14056;SDS011;7103;54.300;10.180;2022-12-07T08:25:44;0.00;;;0.00;;
14056;SDS011;7103;54.300;10.180;2022-12-07T08:28:11;0.10;;;0.10;;
14056;SDS011;7103;54.300;10.180;2022-12-07T08:30:38;0.00;;;0.00;;
14056;SDS011;7103;54.300;10.180;2022-12-07T08:33:05;0.00;;;0.00;;
14056;SDS011;7103;54.300;10.180;2022-12-07T08:35:32;0.10;;;0.10;;
14056;SDS011;7103;54.300;10.180;2022-12-07T08:38:00;0.10;;;0.10;;
14056;SDS011;7103;54.300;10.180;2022-12-07T08:40:28;0.10;;;0.10;;
14056;SDS011;7103;54.300;10.180;2022-12-07T08:42:56;0.00;;;0.00;;
14056;SDS011;7103;54.300;10.180;2022-12-07T08:45:23;0.00;;;0.00;;
14056;SDS011;7103;54.300;10.180;2022-12-07T08:47:59;0.10;;;0.10;;
14056;SDS011;7103;54.300;10.180;2022-12-07T08:50:32;0.10;;;0.10;;
14056;SDS011;7103;54.300;10.180;2022-12-07T08:53:00;0.10;;;0.10;;
14056;SDS011;7103;54.300;10.180;2022-12-07T08:55:28;0.00;;;0.00;;
14056;SDS011;7103;54.300;10.180;2022-12-07T08:57:56;0.00;;;0.00;;
14056;SDS011;7103;54.300;10.180;2022-12-07T09:00:25;0.00;;;0.00;;
14056;SDS011;7103;54.300;10.180;2022-12-07T09:02:53;0.00;;;0.00;;
14056;SDS011;7103;54.300;10.180;2022-12-07T09:05:20;0.00;;;0.00;;
14056;SDS011;7103;54.300;10.180;2022-12-07T09:07:49;0.03;;;0.03;;
14056;SDS011;7103;54.300;10.180;2022-12-07T09:10:18;0.10;;;0.10;;
14056;SDS011;7103;54.300;10.180;2022-12-07T09:12:45;0.10;;;0.10;;
14056;SDS011;7103;54.300;10.180;2022-12-07T09:15:12;0.10;;;0.10;;
14056;SDS011;7103;54.300;10.180;2022-12-07T09:17:39;0.10;;;0.10;;
14056;SDS011;7103;54.300;10.180;2022-12-07T09:20:06;0.10;;;0.10;;
14056;SDS011;7103;54.300;10.180;2022-12-07T09:22:33;0.07;;;0.07;;
14056;SDS011;7103;54.300;10.180;2022-12-07T09:25:00;0.10;;;0.10;;
14056;SDS011;7103;54.300;10.180;2022-12-07T09:27:29;0.00;;;0.00;;
14056;SDS011;7103;54.300;10.180;2022-12-07T09:29:56;0.10;;;0.10;;
14056;SDS011;7103;54.300;10.180;2022-12-07T09:32:23;0.10;;;0.10;;
14056;SDS011;7103;54.300;10.180;2022-12-07T09:34:50;0.20;;;0.20;;
14056;SDS011;7103;54.300;10.180;2022-12-07T09:37:17;0.10;;;0.10;;
14056;SDS011;7103;54.300;10.180;2022-12-07T09:39:44;0.10;;;0.10;;
14056;SDS011;7103;54.300;10.180;2022-12-07T09:42:35;0.20;;;0.20;;
14056;SDS011;7103;54.300;10.180;2022-12-07T09:45:05;0.10;;;0.10;;
14056;SDS011;7103;54.300;10.180;2022-12-07T09:47:33;0.20;;;0.20;;
14056;SDS011;7103;54.300;10.180;2022-12-07T09:50:05;0.10;;;0.10;;
14056;SDS011;7103;54.300;10.180;2022-12-07T09:52:38;0.10;;;0.10;;
14056;SDS011;7103;54.300;10.180;2022-12-07T09:55:19;0.10;;;0.10;;
14056;SDS011;7103;54.300;10.180;2022-12-07T09:57:51;0.10;;;0.10;;
14056;SDS011;7103;54.300;10.180;2022-12-07T10:00:20;0.10;;;0.10;;
14056;SDS011;7103;54.300;10.180;2022-12-07T10:05:34;0.10;;;0.10;;
14056;SDS011;7103;54.300;10.180;2022-12-07T10:08:04;0.20;;;0.20;;
14056;SDS011;7103;54.300;10.180;2022-12-07T10:10:34;0.20;;;0.20;;
14056;SDS011;7103;54.300;10.180;2022-12-07T10:21:00;0.20;;;0.20;;
14056;SDS011;7103;54.300;10.180;2022-12-07T10:23:30;0.10;;;0.10;;
14056;SDS011;7103;54.300;10.180;2022-12-07T10:25:57;0.10;;;0.10;;
14056;SDS011;7103;54.300;10.180;2022-12-07T10:28:27;0.10;;;0.10;;
14056;SDS011;7103;54.300;10.180;2022-12-07T10:31:17;0.10;;;0.10;;
14056;SDS011;7103;54.300;10.180;2022-12-07T10:33:50;0.20;;;0.20;;
14056;SDS011;7103;54.300;10.180;2022-12-07T10:36:27;0.10;;;0.10;;
14056;SDS011;7103;54.300;10.180;2022-12-07T10:39:11;0.10;;;0.10;;
14056;SDS011;7103;54.300;10.180;2022-12-07T10:41:54;0.20;;;0.20;;
14056;SDS011;7103;54.300;10.180;2022-12-07T10:44:31;0.20;;;0.20;;
14056;SDS011;7103;54.300;10.180;2022-12-07T10:55:23;0.20;;;0.20;;
14056;SDS011;7103;54.300;10.180;2022-12-07T11:01:21;0.20;;;0.20;;
14056;SDS011;7103;54.300;10.180;2022-12-07T11:15:41;0.10;;;0.10;;
14056;SDS011;7103;54.300;10.180;2022-12-07T11:35:44;0.20;;;0.20;;
14056;SDS011;7103;54.300;10.180;2022-12-07T11:38:52;0.10;;;0.10;;
14056;SDS011;7103;54.300;10.180;2022-12-07T11:41:40;0.10;;;0.10;;
14056;SDS011;7103;54.300;10.180;2022-12-07T11:44:30;0.20;;;0.20;;
14056;SDS011;7103;54.300;10.180;2022-12-07T11:49:47;0.20;;;0.20;;
14056;SDS011;7103;54.300;10.180;2022-12-07T11:52:42;0.20;;;0.20;;
14056;SDS011;7103;54.300;10.180;2022-12-07T11:55:29;0.23;;;0.23;;
14056;SDS011;7103;54.300;10.180;2022-12-07T12:06:20;0.13;;;0.13;;
14056;SDS011;7103;54.300;10.180;2022-12-07T12:08:50;0.20;;;0.20;;
14056;SDS011;7103;54.300;10.180;2022-12-07T12:21:07;0.10;;;0.10;;
14056;SDS011;7103;54.300;10.180;2022-12-07T12:23:35;0.10;;;0.10;;
14056;SDS011;7103;54.300;10.180;2022-12-07T12:26:08;0.10;;;0.10;;
14056;SDS011;7103;54.300;10.180;2022-12-07T12:33:53;0.23;;;0.23;;
14056;SDS011;7103;54.300;10.180;2022-12-07T12:39:09;0.20;;;0.20;;
14056;SDS011;7103;54.300;10.180;2022-12-07T12:51:48;0.20;;;0.20;;
14056;SDS011;7103;54.300;10.180;2022-12-07T12:54:25;0.20;;;0.20;;
14056;SDS011;7103;54.300;10.180;2022-12-07T13:02:25;0.20;;;0.20;;
14056;SDS011;7103;54.300;10.180;2022-12-07T13:15:54;0.10;;;0.10;;
14056;SDS011;7103;54.300;10.180;2022-12-07T13:18:41;0.10;;;0.10;;
14056;SDS011;7103;54.300;10.180;2022-12-07T13:26:18;0.10;;;0.10;;
14056;SDS011;7103;54.300;10.180;2022-12-07T13:31:50;0.10;;;0.10;;
14056;SDS011;7103;54.300;10.180;2022-12-07T13:34:34;0.20;;;0.20;;
14056;SDS011;7103;54.300;10.180;2022-12-07T13:39:44;0.13;;;0.13;;
14056;SDS011;7103;54.300;10.180;2022-12-07T13:42:22;0.20;;;0.20;;
14056;SDS011;7103;54.300;10.180;2022-12-07T13:44:55;0.20;;;0.20;;
14056;SDS011;7103;54.300;10.180;2022-12-07T13:50:01;0.20;;;0.20;;
14056;SDS011;7103;54.300;10.180;2022-12-07T13:52:28;0.20;;;0.20;;
14056;SDS011;7103;54.300;10.180;2022-12-07T13:57:33;0.20;;;0.20;;
14056;SDS011;7103;54.300;10.180;2022-12-07T14:00:05;0.20;;;0.20;;
14056;SDS011;7103;54.300;10.180;2022-12-07T14:03:00;0.20;;;0.20;;
14056;SDS011;7103;54.300;10.180;2022-12-07T14:05:29;0.20;;;0.20;;
14056;SDS011;7103;54.300;10.180;2022-12-07T14:08:02;0.10;;;0.10;;
14056;SDS011;7103;54.300;10.180;2022-12-07T14:10:31;0.20;;;0.20;;
14056;SDS011;7103;54.300;10.180;2022-12-07T14:13:04;0.20;;;0.20;;
14056;SDS011;7103;54.300;10.180;2022-12-07T14:15:57;0.20;;;0.20;;
14056;SDS011;7103;54.300;10.180;2022-12-07T14:18:28;0.10;;;0.10;;
14056;SDS011;7103;54.300;10.180;2022-12-07T14:21:06;0.10;;;0.10;;
14056;SDS011;7103;54.300;10.180;2022-12-07T14:23:36;0.10;;;0.10;;
14056;SDS011;7103;54.300;10.180;2022-12-07T14:26:07;0.20;;;0.20;;
14056;SDS011;7103;54.300;10.180;2022-12-07T14:28:39;0.20;;;0.20;;
14056;SDS011;7103;54.300;10.180;2022-12-07T14:31:11;0.10;;;0.10;;
14056;SDS011;7103;54.300;10.180;2022-12-07T14:33:50;0.20;;;0.20;;
14056;SDS011;7103;54.300;10.180;2022-12-07T14:36:17;0.20;;;0.20;;
14056;SDS011;7103;54.300;10.180;2022-12-07T14:38:43;0.20;;;0.20;;
14056;SDS011;7103;54.300;10.180;2022-12-07T14:41:13;0.10;;;0.10;;
14056;SDS011;7103;54.300;10.180;2022-12-07T14:44:04;0.20;;;0.20;;
14056;SDS011;7103;54.300;10.180;2022-12-07T14:46:58;0.20;;;0.20;;
14056;SDS011;7103;54.300;10.180;2022-12-07T14:49:45;0.20;;;0.20;;
14056;SDS011;7103;54.300;10.180;2022-12-07T14:52:21;0.23;;;0.23;;
14056;SDS011;7103;54.300;10.180;2022-12-07T14:57:51;0.20;;;0.20;;
14056;SDS011;7103;54.300;10.180;2022-12-07T15:00:18;0.10;;;0.10;;
14056;SDS011;7103;54.300;10.180;2022-12-07T15:02:46;0.20;;;0.20;;
14056;SDS011;7103;54.300;10.180;2022-12-07T15:05:14;0.20;;;0.20;;
14056;SDS011;7103;54.300;10.180;2022-12-07T15:07:42;0.10;;;0.10;;
14056;SDS011;7103;54.300;10.180;2022-12-07T15:12:56;0.10;;;0.10;;
14056;SDS011;7103;54.300;10.180;2022-12-07T15:15:49;0.10;;;0.10;;
14056;SDS011;7103;54.300;10.180;2022-12-07T15:18:18;0.20;;;0.20;;
14056;SDS011;7103;54.300;10.180;2022-12-07T15:20:46;0.20;;;0.20;;
14056;SDS011;7103;54.300;10.180;2022-12-07T15:23:13;0.10;;;0.10;;
14056;SDS011;7103;54.300;10.180;2022-12-07T15:25:41;0.10;;;0.10;;
14056;SDS011;7103;54.300;10.180;2022-12-07T15:28:09;0.10;;;0.10;;
14056;SDS011;7103;54.300;10.180;2022-12-07T15:30:37;0.20;;;0.20;;
14056;SDS011;7103;54.300;10.180;2022-12-07T15:33:04;0.10;;;0.10;;
14056;SDS011;7103;54.300;10.180;2022-12-07T15:35:31;0.20;;;0.20;;
14056;SDS011;7103;54.300;10.180;2022-12-07T15:37:58;0.10;;;0.10;;
14056;SDS011;7103;54.300;10.180;2022-12-07T15:40:25;0.20;;;0.20;;
14056;SDS011;7103;54.300;10.180;2022-12-07T15:42:52;0.20;;;0.20;;
14056;SDS011;7103;54.300;10.180;2022-12-07T15:45:19;0.20;;;0.20;;
14056;SDS011;7103;54.300;10.180;2022-12-07T15:47:45;0.10;;;0.10;;
14056;SDS011;7103;54.300;10.180;2022-12-07T15:50:32;0.13;;;0.13;;
14056;SDS011;7103;54.300;10.180;2022-12-07T15:52:59;0.20;;;0.20;;
14056;SDS011;7103;54.300;10.180;2022-12-07T15:55:26;0.10;;;0.10;;
14056;SDS011;7103;54.300;10.180;2022-12-07T15:57:53;0.20;;;0.20;;
14056;SDS011;7103;54.300;10.180;2022-12-07T16:00:20;0.20;;;0.20;;
14056;SDS011;7103;54.300;10.180;2022-12-07T16:02:46;0.10;;;0.10;;
14056;SDS011;7103;54.300;10.180;2022-12-07T16:05:14;0.10;;;0.10;;
14056;SDS011;7103;54.300;10.180;2022-12-07T16:07:40;0.10;;;0.10;;
14056;SDS011;7103;54.300;10.180;2022-12-07T16:10:08;0.20;;;0.20;;
14056;SDS011;7103;54.300;10.180;2022-12-07T16:12:35;0.10;;;0.10;;
14056;SDS011;7103;54.300;10.180;2022-12-07T16:15:02;0.20;;;0.20;;
14056;SDS011;7103;54.300;10.180;2022-12-07T16:17:29;0.20;;;0.20;;
14056;SDS011;7103;54.300;10.180;2022-12-07T16:19:56;0.20;;;0.20;;
14056;SDS011;7103;54.300;10.180;2022-12-07T16:22:23;0.10;;;0.10;;
14056;SDS011;7103;54.300;10.180;2022-12-07T16:24:50;0.20;;;0.20;;
14056;SDS011;7103;54.300;10.180;2022-12-07T16:27:17;0.20;;;0.20;;
14056;SDS011;7103;54.300;10.180;2022-12-07T16:29:44;0.20;;;0.20;;
14056;SDS011;7103;54.300;10.180;2022-12-07T16:32:11;0.20;;;0.20;;
14056;SDS011;7103;54.300;10.180;2022-12-07T16:34:39;0.20;;;0.20;;
14056;SDS011;7103;54.300;10.180;2022-12-07T16:37:06;0.20;;;0.20;;
14056;SDS011;7103;54.300;10.180;2022-12-07T16:39:33;0.20;;;0.20;;
14056;SDS011;7103;54.300;10.180;2022-12-07T16:42:00;0.13;;;0.13;;
14056;SDS011;7103;54.300;10.180;2022-12-07T16:44:27;0.20;;;0.20;;
14056;SDS011;7103;54.300;10.180;2022-12-07T16:46:54;0.30;;;0.30;;
14056;SDS011;7103;54.300;10.180;2022-12-07T16:49:21;0.20;;;0.20;;
14056;SDS011;7103;54.300;10.180;2022-12-07T16:51:50;0.20;;;0.20;;
14056;SDS011;7103;54.300;10.180;2022-12-07T16:54:37;0.20;;;0.20;;
14056;SDS011;7103;54.300;10.180;2022-12-07T16:57:04;0.20;;;0.20;;
14056;SDS011;7103;54.300;10.180;2022-12-07T16:59:31;0.10;;;0.10;;
14056;SDS011;7103;54.300;10.180;2022-12-07T17:01:58;0.20;;;0.20;;
14056;SDS011;7103;54.300;10.180;2022-12-07T17:04:25;0.20;;;0.20;;
14056;SDS011;7103;54.300;10.180;2022-12-07T17:06:52;0.10;;;0.10;;
14056;SDS011;7103;54.300;10.180;2022-12-07T17:09:19;0.10;;;0.10;;
14056;SDS011;7103;54.300;10.180;2022-12-07T17:11:47;0.20;;;0.20;;
14056;SDS011;7103;54.300;10.180;2022-12-07T17:14:13;0.20;;;0.20;;
14056;SDS011;7103;54.300;10.180;2022-12-07T17:16:59;0.20;;;0.20;;
14056;SDS011;7103;54.300;10.180;2022-12-07T17:19:26;0.10;;;0.10;;
14056;SDS011;7103;54.300;10.180;2022-12-07T17:21:53;0.20;;;0.20;;
14056;SDS011;7103;54.300;10.180;2022-12-07T17:24:20;0.20;;;0.20;;
14056;SDS011;7103;54.300;10.180;2022-12-07T17:26:47;0.20;;;0.20;;
14056;SDS011;7103;54.300;10.180;2022-12-07T17:29:15;0.10;;;0.10;;
14056;SDS011;7103;54.300;10.180;2022-12-07T17:31:43;0.10;;;0.10;;
14056;SDS011;7103;54.300;10.180;2022-12-07T17:34:17;0.20;;;0.20;;
14056;SDS011;7103;54.300;10.180;2022-12-07T17:36:44;0.10;;;0.10;;
14056;SDS011;7103;54.300;10.180;2022-12-07T17:39:12;0.30;;;0.30;;
14056;SDS011;7103;54.300;10.180;2022-12-07T17:41:41;0.20;;;0.20;;
14056;SDS011;7103;54.300;10.180;2022-12-07T17:44:27;0.20;;;0.20;;
14056;SDS011;7103;54.300;10.180;2022-12-07T17:46:55;0.20;;;0.20;;
14056;SDS011;7103;54.300;10.180;2022-12-07T17:49:27;0.20;;;0.20;;
14056;SDS011;7103;54.300;10.180;2022-12-07T17:51:54;0.10;;;0.10;;